Time;durP1;ratioP1;P1;durP2;ratioP2;P2;SDS_P1;SDS_P2;PMS_P1;PMS_P2;Temp;Humidity;BMP_temperature;BMP_pressure;BME280_temperature;BME280_humidity;BME280_pressure;Samples;Min_cycle;Max_cycle;Signal;HPM_P1;HPM_P2
2021/09/07 00:00:49;;;;;;;11.82;6.70;;;;;;;;;;4935895;29;20066;-74
2021/09/07 00:03:15;;;;;;;8.63;6.47;;;;;;;;;;4978280;28;20039;-73
2021/09/07 00:05:41;;;;;;;11.98;6.30;;;;;;;;;;4975560;28;20473;-74
2021/09/07 00:08:07;;;;;;;14.55;6.90;;;;;;;;;;4974265;28;20074;-74
2021/09/07 00:10:33;;;;;;;14.45;6.80;;;;;;;;;;4976471;28;20094;-74
2021/09/07 00:13:19;;;;;;;10.55;6.50;;;;;;;;;;4961300;28;20484;-74
2021/09/07 00:15:47;;;;;;;12.13;7.38;;;;;;;;;;4981350;28;20042;-74
2021/09/07 00:18:14;;;;;;;9.38;6.97;;;;;;;;;;4975955;28;20508;-73
2021/09/07 00:23:27;;;;;;;11.10;6.20;;;;;;;;;;4978529;28;20054;-74
2021/09/07 00:25:55;;;;;;;10.50;6.25;;;;;;;;;;4974751;28;20030;-74
2021/09/07 00:28:21;;;;;;;12.45;6.45;;;;;;;;;;4966841;28;20161;-74
2021/09/07 00:30:47;;;;;;;9.18;6.15;;;;;;;;;;4969793;28;20070;-72
2021/09/07 00:33:13;;;;;;;14.80;6.35;;;;;;;;;;4971869;28;20049;-73
2021/09/07 00:35:39;;;;;;;10.98;6.63;;;;;;;;;;4967565;28;20051;-74
2021/09/07 00:38:06;;;;;;;11.32;6.32;;;;;;;;;;4974112;28;20034;-74
2021/09/07 00:40:32;;;;;;;10.55;6.20;;;;;;;;;;4975540;28;20588;-74
2021/09/07 00:42:58;;;;;;;12.07;6.40;;;;;;;;;;4974768;28;20384;-73
2021/09/07 00:45:24;;;;;;;10.90;6.97;;;;;;;;;;4974295;28;20027;-74
2021/09/07 00:47:50;;;;;;;12.55;6.70;;;;;;;;;;4975383;28;20392;-73
2021/09/07 00:50:44;;;;;;;14.15;6.43;;;;;;;;;;4987483;28;20042;-74
2021/09/07 00:53:11;;;;;;;15.30;7.00;;;;;;;;;;4932680;29;20067;-72
2021/09/07 00:55:37;;;;;;;12.90;6.38;;;;;;;;;;4943867;29;20061;-73
2021/09/07 00:58:23;;;;;;;13.00;6.50;;;;;;;;;;4940000;29;20564;-74
2021/09/07 01:00:49;;;;;;;11.40;6.20;;;;;;;;;;4934851;29;20063;-72
2021/09/07 01:03:15;;;;;;;14.18;6.40;;;;;;;;;;4934765;29;20043;-74
2021/09/07 01:05:42;;;;;;;10.35;6.68;;;;;;;;;;4935370;29;20050;-74
2021/09/07 01:08:08;;;;;;;15.15;6.75;;;;;;;;;;4921832;29;20032;-74
2021/09/07 01:13:29;;;;;;;9.95;6.10;;;;;;;;;;4885763;29;20052;-74
2021/09/07 01:15:55;;;;;;;11.70;6.57;;;;;;;;;;4898630;29;20040;-74
2021/09/07 01:18:21;;;;;;;10.57;6.20;;;;;;;;;;4932725;29;20032;-73
2021/09/07 01:20:47;;;;;;;13.55;6.40;;;;;;;;;;4934146;29;20034;-74
2021/09/07 01:23:13;;;;;;;11.68;6.60;;;;;;;;;;4934195;29;20034;-72
2021/09/07 01:25:39;;;;;;;11.30;6.75;;;;;;;;;;4933647;29;20046;-74
2021/09/07 01:28:05;;;;;;;14.57;6.47;;;;;;;;;;4924359;29;20505;-72
2021/09/07 01:30:31;;;;;;;11.10;6.53;;;;;;;;;;4933544;29;20047;-74
2021/09/07 01:32:59;;;;;;;11.98;7.07;;;;;;;;;;4933658;29;20031;-74
2021/09/07 01:35:25;;;;;;;14.10;6.60;;;;;;;;;;4932987;29;20119;-74
2021/09/07 01:37:56;;;;;;;11.57;6.45;;;;;;;;;;4914231;29;20034;-74
2021/09/07 01:40:22;;;;;;;17.08;7.32;;;;;;;;;;4937478;29;20118;-71
2021/09/07 01:42:48;;;;;;;11.95;7.07;;;;;;;;;;4932108;29;20077;-72
2021/09/07 01:45:14;;;;;;;12.63;7.07;;;;;;;;;;4933553;29;20524;-74
2021/09/07 01:47:50;;;;;;;11.68;7.47;;;;;;;;;;4942733;29;20083;-75
2021/09/07 01:50:17;;;;;;;11.93;6.82;;;;;;;;;;4953068;28;20093;-74
2021/09/07 01:52:43;;;;;;;16.90;7.35;;;;;;;;;;4972884;28;20034;-72
2021/09/07 01:55:10;;;;;;;14.55;7.30;;;;;;;;;;4966210;28;20039;-73
2021/09/07 01:57:36;;;;;;;13.02;6.95;;;;;;;;;;4971740;28;20034;-74
2021/09/07 02:00:04;;;;;;;16.30;7.25;;;;;;;;;;4967948;28;20389;-73
2021/09/07 02:02:30;;;;;;;11.48;6.68;;;;;;;;;;4971093;28;20042;-74
2021/09/07 02:04:56;;;;;;;13.85;6.90;;;;;;;;;;4959846;28;20106;-74
2021/09/07 02:07:22;;;;;;;13.45;6.90;;;;;;;;;;4969944;28;20049;-73
2021/09/07 02:09:49;;;;;;;12.55;6.82;;;;;;;;;;4956152;28;20064;-74
2021/09/07 02:12:16;;;;;;;12.73;7.10;;;;;;;;;;4971565;28;20031;-74
2021/09/07 02:14:42;;;;;;;13.52;6.75;;;;;;;;;;4973616;28;20022;-74
2021/09/07 02:17:08;;;;;;;15.23;7.00;;;;;;;;;;4970969;28;20092;-72
2021/09/07 02:19:34;;;;;;;11.85;6.97;;;;;;;;;;4973682;28;20022;-71
2021/09/07 02:22:11;;;;;;;12.27;6.68;;;;;;;;;;4982671;28;20495;-75
2021/09/07 02:24:37;;;;;;;16.30;7.35;;;;;;;;;;4959073;28;20019;-73
2021/09/07 02:27:04;;;;;;;12.65;6.68;;;;;;;;;;4961474;28;20035;-74
2021/09/07 02:29:45;;;;;;;12.65;7.43;;;;;;;;;;4975510;28;20058;-74
2021/09/07 02:32:22;;;;;;;12.27;6.65;;;;;;;;;;4980483;28;20038;-74
2021/09/07 02:34:50;;;;;;;11.80;6.90;;;;;;;;;;4981158;28;20043;-73
2021/09/07 02:37:16;;;;;;;11.68;6.32;;;;;;;;;;4976597;28;20525;-74
2021/09/07 02:39:42;;;;;;;14.32;7.03;;;;;;;;;;4977220;28;20022;-73
2021/09/07 02:42:09;;;;;;;13.63;6.57;;;;;;;;;;4967336;28;20553;-74
2021/09/07 02:44:35;;;;;;;11.63;6.18;;;;;;;;;;4989716;28;20031;-74
2021/09/07 02:47:01;;;;;;;12.30;6.38;;;;;;;;;;4979342;28;20034;-72
2021/09/07 02:49:27;;;;;;;12.73;6.22;;;;;;;;;;4976592;28;20030;-73
2021/09/07 02:51:53;;;;;;;10.63;5.55;;;;;;;;;;4976061;28;20034;-73
2021/09/07 02:54:19;;;;;;;10.30;6.45;;;;;;;;;;4976258;28;20428;-74
2021/09/07 02:56:45;;;;;;;10.18;5.95;;;;;;;;;;4975067;28;20023;-73
2021/09/07 02:59:11;;;;;;;13.10;6.00;;;;;;;;;;4977111;28;20098;-74
2021/09/07 03:01:37;;;;;;;10.57;6.07;;;;;;;;;;4976900;28;21752;-73
2021/09/07 03:04:11;;;;;;;11.52;6.00;;;;;;;;;;4977275;28;20141;-73
2021/09/07 03:06:37;;;;;;;8.73;5.88;;;;;;;;;;4957546;28;20038;-74
2021/09/07 03:09:04;;;;;;;14.40;5.65;;;;;;;;;;4975144;28;20026;-72
2021/09/07 03:11:32;;;;;;;12.77;5.60;;;;;;;;;;4978170;28;20038;-73
2021/09/07 03:13:59;;;;;;;12.25;6.20;;;;;;;;;;4976060;28;20139;-74
2021/09/07 03:16:25;;;;;;;16.48;6.30;;;;;;;;;;4977017;28;20033;-72
2021/09/07 03:18:51;;;;;;;10.13;5.97;;;;;;;;;;4975195;28;20065;-74
2021/09/07 03:21:17;;;;;;;9.65;5.80;;;;;;;;;;4967155;28;20030;-74
2021/09/07 03:23:44;;;;;;;13.98;6.05;;;;;;;;;;4964780;28;20035;-72
2021/09/07 03:26:10;;;;;;;11.52;5.65;;;;;;;;;;4975615;28;20026;-74
2021/09/07 03:28:36;;;;;;;10.25;6.05;;;;;;;;;;4975259;28;20034;-74
2021/09/07 03:31:02;;;;;;;13.07;5.72;;;;;;;;;;4962403;28;20043;-74
2021/09/07 03:33:28;;;;;;;10.63;5.97;;;;;;;;;;4970951;28;20027;-74
2021/09/07 03:35:54;;;;;;;11.52;6.00;;;;;;;;;;4971223;28;20078;-72
2021/09/07 03:38:20;;;;;;;11.07;6.07;;;;;;;;;;4974392;28;20023;-73
2021/09/07 03:40:48;;;;;;;10.73;6.20;;;;;;;;;;4973979;28;20026;-74
2021/09/07 03:43:17;;;;;;;14.98;6.63;;;;;;;;;;4975955;28;20027;-74
2021/09/07 03:45:44;;;;;;;14.10;6.88;;;;;;;;;;4976230;28;20027;-74
2021/09/07 03:48:10;;;;;;;12.90;6.95;;;;;;;;;;4976561;28;20023;-74
2021/09/07 03:50:38;;;;;;;11.20;6.53;;;;;;;;;;4981418;28;20042;-74
2021/09/07 03:53:05;;;;;;;13.50;6.40;;;;;;;;;;4957982;28;20035;-74
2021/09/07 03:55:32;;;;;;;14.30;6.78;;;;;;;;;;4964893;28;20045;-74
2021/09/07 03:58:02;;;;;;;12.23;7.13;;;;;;;;;;4965197;28;20027;-75
2021/09/07 04:00:29;;;;;;;13.80;7.03;;;;;;;;;;4968708;28;20027;-74
2021/09/07 04:02:55;;;;;;;13.55;6.82;;;;;;;;;;4970296;28;20030;-74
2021/09/07 04:05:21;;;;;;;11.82;6.65;;;;;;;;;;4976235;28;20034;-74
2021/09/07 04:07:48;;;;;;;11.68;6.63;;;;;;;;;;4976120;28;20046;-73
2021/09/07 04:10:53;;;;;;;11.40;6.82;;;;;;;;;;4976661;28;20034;-75
2021/09/07 04:13:19;;;;;;;;;;;;;;;;;;4880949;29;20451;-74
2021/09/07 04:15:45;;;;;;;11.98;6.50;;;;;;;;;;4958434;28;20002;-74
2021/09/07 04:18:11;;;;;;;11.45;6.35;;;;;;;;;;4965023;28;20042;-73
2021/09/07 04:20:37;;;;;;;10.80;6.60;;;;;;;;;;4975289;28;20161;-73
2021/09/07 04:23:03;;;;;;;12.35;6.40;;;;;;;;;;4967657;28;20027;-74
2021/09/07 04:25:29;;;;;;;11.68;6.65;;;;;;;;;;4970869;28;20097;-74
2021/09/07 04:27:55;;;;;;;13.15;6.18;;;;;;;;;;4965335;28;20041;-74
2021/09/07 04:30:27;;;;;;;13.70;6.53;;;;;;;;;;4967123;28;20187;-74
2021/09/07 04:32:54;;;;;;;13.65;6.57;;;;;;;;;;4975309;28;20022;-74
2021/09/07 04:35:20;;;;;;;12.93;6.65;;;;;;;;;;4985664;28;20046;-75
2021/09/07 04:37:46;;;;;;;9.60;6.20;;;;;;;;;;4977621;28;20608;-73
2021/09/07 04:40:12;;;;;;;12.07;6.40;;;;;;;;;;4975012;28;20034;-73
2021/09/07 04:42:39;;;;;;;12.32;7.00;;;;;;;;;;4974970;28;20026;-74
2021/09/07 04:45:36;;;;;;;14.75;6.13;;;;;;;;;;4975161;28;20480;-73
2021/09/07 04:48:02;;;;;;;11.85;6.20;;;;;;;;;;4973821;28;20401;-74
2021/09/07 04:50:28;;;;;;;9.82;6.15;;;;;;;;;;4972184;28;20132;-73
2021/09/07 04:52:54;;;;;;;16.80;7.40;;;;;;;;;;4975014;28;20019;-74
2021/09/07 04:55:20;;;;;;;14.45;6.20;;;;;;;;;;4974659;28;20081;-73
2021/09/07 04:57:46;;;;;;;11.30;6.43;;;;;;;;;;4963137;28;20359;-73
2021/09/07 05:00:12;;;;;;;11.60;6.28;;;;;;;;;;4971783;28;20109;-75
2021/09/07 05:02:38;;;;;;;14.05;6.90;;;;;;;;;;4966121;28;20105;-73
2021/09/07 05:05:08;;;;;;;13.05;7.03;;;;;;;;;;4962137;28;20027;-73
2021/09/07 05:07:34;;;;;;;13.90;6.85;;;;;;;;;;4972388;28;20019;-74
2021/09/07 05:10:01;;;;;;;13.20;6.65;;;;;;;;;;4972939;28;20842;-74
2021/09/07 05:12:27;;;;;;;16.73;6.45;;;;;;;;;;4959713;28;20030;-70
2021/09/07 05:14:56;;;;;;;11.32;6.25;;;;;;;;;;4969710;28;20039;-71
2021/09/07 05:17:28;;;;;;;13.25;6.43;;;;;;;;;;4972899;28;20026;-71
2021/09/07 05:19:54;;;;;;;15.65;6.53;;;;;;;;;;4950521;28;20516;-74
2021/09/07 05:22:20;;;;;;;15.95;6.60;;;;;;;;;;4951616;28;20398;-70
2021/09/07 05:24:46;;;;;;;12.60;6.93;;;;;;;;;;4952350;28;20031;-71
2021/09/07 05:27:12;;;;;;;9.15;5.93;;;;;;;;;;4953049;28;20031;-74
2021/09/07 05:29:38;;;;;;;14.27;6.57;;;;;;;;;;4950789;28;20050;-68
2021/09/07 05:32:05;;;;;;;13.00;6.78;;;;;;;;;;4950640;28;20047;-75
2021/09/07 05:34:31;;;;;;;20.42;7.80;;;;;;;;;;4951210;28;20055;-74
2021/09/07 05:36:57;;;;;;;13.15;6.53;;;;;;;;;;4951000;28;20198;-73
2021/09/07 05:39:24;;;;;;;11.93;7.03;;;;;;;;;;4950706;28;20043;-68
2021/09/07 05:41:53;;;;;;;14.68;6.47;;;;;;;;;;4952066;28;20031;-70
2021/09/07 05:44:19;;;;;;;13.50;6.88;;;;;;;;;;4951397;28;21701;-72
2021/09/07 05:46:45;;;;;;;20.40;6.72;;;;;;;;;;4951919;28;20090;-72
2021/09/07 05:49:11;;;;;;;12.93;6.97;;;;;;;;;;4935538;28;20533;-68
2021/09/07 05:51:44;;;;;;;13.68;6.45;;;;;;;;;;4969052;28;20412;-69
2021/09/07 05:54:10;;;;;;;19.98;7.70;;;;;;;;;;4972910;28;20027;-70
2021/09/07 05:56:36;;;;;;;14.20;7.15;;;;;;;;;;4973059;28;20038;-71
2021/09/07 05:59:02;;;;;;;15.38;7.03;;;;;;;;;;4973379;28;20019;-68
2021/09/07 06:01:28;;;;;;;22.20;7.28;;;;;;;;;;4972726;28;20035;-69
2021/09/07 06:03:54;;;;;;;18.48;7.57;;;;;;;;;;4972515;28;20077;-69
2021/09/07 06:06:21;;;;;;;13.43;7.13;;;;;;;;;;4972152;28;20031;-74
2021/09/07 06:08:47;;;;;;;17.35;7.15;;;;;;;;;;4971317;28;20027;-73
2021/09/07 06:11:16;;;;;;;10.98;7.05;;;;;;;;;;4972725;28;20038;-78
2021/09/07 06:13:45;;;;;;;15.75;7.03;;;;;;;;;;4954545;28;20382;-73
2021/09/07 06:16:11;;;;;;;19.02;7.72;;;;;;;;;;4971076;28;20102;-75
2021/09/07 06:18:37;;;;;;;15.45;7.25;;;;;;;;;;4972030;28;20473;-72
2021/09/07 06:21:03;;;;;;;12.30;6.85;;;;;;;;;;4972051;28;20035;-74
2021/09/07 06:24:11;;;;;;;;;;;;;;;;;;;;;
2021/09/07 06:26:37;;;;;;;13.98;6.97;;;;;;;;;;4874582;29;20045;-74
2021/09/07 06:29:06;;;;;;;14.07;6.85;;;;;;;;;;4875174;29;20037;-72
2021/09/07 06:31:40;;;;;;;18.35;6.72;;;;;;;;;;4874427;29;20101;-71
2021/09/07 06:34:06;;;;;;;16.00;7.03;;;;;;;;;;4857950;29;20049;-72
2021/09/07 06:36:34;;;;;;;15.80;6.93;;;;;;;;;;4875225;29;20049;-73
2021/09/07 06:39:09;;;;;;;27.63;7.43;;;;;;;;;;4854985;29;20041;-73
2021/09/07 06:41:35;;;;;;;11.05;6.40;;;;;;;;;;4859017;29;20044;-70
2021/09/07 06:44:01;;;;;;;15.55;6.30;;;;;;;;;;4881103;29;20120;-73
2021/09/07 06:46:27;;;;;;;14.10;6.85;;;;;;;;;;4874808;29;20033;-71
2021/09/07 06:48:53;;;;;;;16.20;6.90;;;;;;;;;;4869503;29;20025;-71
2021/09/07 06:51:35;;;;;;;14.77;6.90;;;;;;;;;;4874148;29;20416;-71
2021/09/07 06:54:01;;;;;;;10.45;6.55;;;;;;;;;;4872336;29;20120;-71
2021/09/07 06:56:59;;;;;;;16.38;6.70;;;;;;;;;;4875015;29;20087;-73
2021/09/07 06:59:36;;;;;;;13.55;6.68;;;;;;;;;;4836441;29;20424;-71
2021/09/07 07:02:24;;;;;;;;;;;;;;;;;;;;;
2021/09/07 07:05:24;;;;;;;11.48;7.25;;;;;;;;;;4906363;29;20045;-71
2021/09/07 07:08:00;;;;;;;17.42;7.47;;;;;;;;;;4906951;29;20035;-71
2021/09/07 07:10:27;;;;;;;15.40;6.82;;;;;;;;;;4911024;29;20534;-72
2021/09/07 07:13:01;;;;;;;16.63;7.28;;;;;;;;;;4911630;29;20057;-72
2021/09/07 07:15:36;;;;;;;17.17;7.10;;;;;;;;;;4904024;29;20539;-71
2021/09/07 07:18:02;;;;;;;15.65;7.03;;;;;;;;;;4911027;29;20442;-72
2021/09/07 07:20:32;;;;;;;18.52;7.07;;;;;;;;;;4912392;29;20032;-72
2021/09/07 07:22:59;;;;;;;21.80;7.57;;;;;;;;;;4912917;29;20491;-80
2021/09/07 07:25:25;;;;;;;13.25;7.30;;;;;;;;;;4914138;29;20473;-73
2021/09/07 07:27:51;;;;;;;13.00;7.00;;;;;;;;;;4916034;29;20427;-70
2021/09/07 07:30:27;;;;;;;12.48;6.57;;;;;;;;;;4915947;29;20044;-72
2021/09/07 07:32:54;;;;;;;12.70;6.00;;;;;;;;;;4915570;29;20032;-71
2021/09/07 07:35:22;;;;;;;10.70;5.72;;;;;;;;;;4913570;28;20052;-71
2021/09/07 07:37:56;;;;;;;8.73;5.22;;;;;;;;;;4971784;28;20034;-71
2021/09/07 07:40:23;;;;;;;8.25;5.63;;;;;;;;;;4934296;29;20040;-72
2021/09/07 07:42:49;;;;;;;13.32;6.47;;;;;;;;;;4933952;29;20124;-72
2021/09/07 07:45:18;;;;;;;11.23;6.18;;;;;;;;;;4933332;29;20620;-72
2021/09/07 07:47:44;;;;;;;11.13;6.55;;;;;;;;;;4930854;29;20091;-71
2021/09/07 07:50:29;;;;;;;14.82;6.40;;;;;;;;;;4933472;29;20043;-72
2021/09/07 07:53:02;;;;;;;9.65;5.95;;;;;;;;;;4932157;29;20061;-69
2021/09/07 07:55:28;;;;;;;12.48;6.18;;;;;;;;;;4933862;29;20043;-74
2021/09/07 07:57:54;;;;;;;12.23;5.88;;;;;;;;;;4933105;29;20027;-72
2021/09/07 08:00:30;;;;;;;8.55;5.70;;;;;;;;;;4933162;29;20580;-72
2021/09/07 08:03:07;;;;;;;12.13;6.30;;;;;;;;;;4912076;29;20038;-72
2021/09/07 08:05:33;;;;;;;16.33;6.35;;;;;;;;;;4962185;28;20047;-69
2021/09/07 08:07:59;;;;;;;11.43;6.03;;;;;;;;;;4971792;28;20033;-68
2021/09/07 08:10:25;;;;;;;11.10;5.82;;;;;;;;;;4964544;28;20122;-68
2021/09/07 08:12:51;;;;;;;10.07;5.78;;;;;;;;;;4973832;28;20027;-67
2021/09/07 08:15:18;;;;;;;18.90;6.30;;;;;;;;;;4970593;28;20489;-69
2021/09/07 08:17:44;;;;;;;9.32;5.45;;;;;;;;;;4974459;28;20109;-70
2021/09/07 08:20:10;;;;;;;17.90;6.15;;;;;;;;;;4956465;28;20069;-69
2021/09/07 08:22:57;;;;;;;12.95;6.00;;;;;;;;;;4970208;28;20070;-72
2021/09/07 08:25:23;;;;;;;15.10;5.95;;;;;;;;;;4971323;28;20038;-72
2021/09/07 08:27:49;;;;;;;10.98;5.20;;;;;;;;;;4973570;28;20105;-71
2021/09/07 08:30:15;;;;;;;15.82;5.40;;;;;;;;;;4971077;28;20045;-70
2021/09/07 08:32:42;;;;;;;10.10;5.22;;;;;;;;;;4961941;28;20078;-71
2021/09/07 08:35:10;;;;;;;48.72;6.82;;;;;;;;;;4951384;28;20047;-72
2021/09/07 08:37:36;;;;;;;13.38;5.50;;;;;;;;;;4973378;28;20557;-72
2021/09/07 08:40:03;;;;;;;44.78;7.28;;;;;;;;;;4973433;28;20035;-72
2021/09/07 08:42:29;;;;;;;16.23;5.38;;;;;;;;;;4967501;28;20031;-71
2021/09/07 08:44:58;;;;;;;15.07;5.70;;;;;;;;;;4950822;28;20019;-71
2021/09/07 08:47:24;;;;;;;9.35;5.32;;;;;;;;;;4973552;28;20049;-75
2021/09/07 08:49:51;;;;;;;24.90;6.60;;;;;;;;;;4969878;28;20050;-72
2021/09/07 08:52:19;;;;;;;20.67;5.80;;;;;;;;;;4973861;28;20070;-72
2021/09/07 08:54:46;;;;;;;15.63;5.88;;;;;;;;;;4974027;28;20481;-74
2021/09/07 08:57:12;;;;;;;256.52;29.33;;;;;;;;;;4970051;28;20031;-73
2021/09/07 08:59:38;;;;;;;12.43;5.85;;;;;;;;;;4941872;28;20402;-74
2021/09/07 09:02:12;;;;;;;8.10;5.38;;;;;;;;;;4972362;28;20375;-76
2021/09/07 09:04:38;;;;;;;11.18;6.20;;;;;;;;;;4974182;28;20477;-76
2021/09/07 09:07:04;;;;;;;10.02;5.60;;;;;;;;;;4973448;28;20129;-75
2021/09/07 09:09:34;;;;;;;12.38;6.15;;;;;;;;;;4972325;28;20031;-71
2021/09/07 09:12:01;;;;;;;16.83;6.05;;;;;;;;;;4973358;28;20093;-71
2021/09/07 09:14:46;;;;;;;7.40;5.40;;;;;;;;;;4973169;28;20039;-76
2021/09/07 09:17:23;;;;;;;11.57;5.75;;;;;;;;;;4973108;28;20031;-77
2021/09/07 09:20:03;;;;;;;21.08;6.15;;;;;;;;;;4972167;28;20090;-71
2021/09/07 09:22:48;;;;;;;10.55;5.30;;;;;;;;;;4972882;28;20611;-71
2021/09/07 09:25:23;;;;;;;8.05;5.38;;;;;;;;;;4973949;28;20035;-76
2021/09/07 09:27:50;;;;;;;7.47;5.07;;;;;;;;;;4973303;28;20111;-70
2021/09/07 09:30:17;;;;;;;10.18;5.40;;;;;;;;;;4971040;28;20045;-75
2021/09/07 09:32:49;;;;;;;10.02;5.55;;;;;;;;;;4973189;28;20034;-74
2021/09/07 09:35:15;;;;;;;15.07;6.00;;;;;;;;;;4973185;28;20086;-76
2021/09/07 09:37:54;;;;;;;12.02;5.75;;;;;;;;;;4972830;28;20030;-72
2021/09/07 09:40:20;;;;;;;14.23;5.78;;;;;;;;;;4979001;28;20045;-73
2021/09/07 09:42:48;;;;;;;10.10;5.20;;;;;;;;;;4972433;28;20030;-73
2021/09/07 09:45:15;;;;;;;17.52;5.80;;;;;;;;;;4973295;28;20469;-74
2021/09/07 09:47:51;;;;;;;9.13;4.97;;;;;;;;;;4973225;28;20037;-73
2021/09/07 09:50:17;;;;;;;9.30;5.18;;;;;;;;;;4973518;28;20100;-73
2021/09/07 09:52:44;;;;;;;8.25;5.10;;;;;;;;;;4971426;28;20035;-73
2021/09/07 09:55:12;;;;;;;10.50;5.20;;;;;;;;;;4973335;28;20034;-74
2021/09/07 09:57:39;;;;;;;8.68;5.40;;;;;;;;;;4973354;28;20058;-77
2021/09/07 10:00:06;;;;;;;7.60;4.97;;;;;;;;;;4973053;28;20092;-75
2021/09/07 10:02:32;;;;;;;7.97;5.03;;;;;;;;;;4972206;28;20101;-76
2021/09/07 10:05:02;;;;;;;9.18;4.57;;;;;;;;;;4973002;28;20019;-75
2021/09/07 10:07:28;;;;;;;10.05;5.20;;;;;;;;;;4972725;28;20034;-74
2021/09/07 10:09:56;;;;;;;8.25;5.40;;;;;;;;;;4972738;28;20023;-73
2021/09/07 10:12:27;;;;;;;14.77;5.07;;;;;;;;;;4972681;28;20101;-74
2021/09/07 10:15:02;;;;;;;27.17;6.82;;;;;;;;;;4972971;28;20023;-75
2021/09/07 10:25:52;;;;;;;13.48;5.10;;;;;;;;;;4968818;28;20079;-78
2021/09/07 10:28:30;;;;;;;11.60;5.40;;;;;;;;;;4972065;28;20055;-72
2021/09/07 10:30:59;;;;;;;11.82;5.30;;;;;;;;;;4972676;28;20038;-74
2021/09/07 10:33:45;;;;;;;12.15;5.30;;;;;;;;;;4964388;28;20715;-72
2021/09/07 10:36:11;;;;;;;11.20;5.55;;;;;;;;;;4970046;28;20035;-72
2021/09/07 10:38:38;;;;;;;14.98;5.05;;;;;;;;;;4972116;28;20050;-75
2021/09/07 10:41:04;;;;;;;11.77;5.30;;;;;;;;;;4971628;28;20054;-74
2021/09/07 10:43:51;;;;;;;8.70;5.13;;;;;;;;;;4970626;28;20031;-74
2021/09/07 10:46:18;;;;;;;10.75;5.20;;;;;;;;;;4968851;28;20057;-75
2021/09/07 10:48:44;;;;;;;9.02;5.30;;;;;;;;;;4956359;28;20500;-73
2021/09/07 10:51:15;;;;;;;11.05;5.00;;;;;;;;;;4979001;28;20130;-73
2021/09/07 10:54:01;;;;;;;7.70;4.68;;;;;;;;;;4976130;28;20023;-74
2021/09/07 10:56:27;;;;;;;11.90;5.30;;;;;;;;;;4976252;28;20045;-74
2021/09/07 10:58:53;;;;;;;9.55;5.28;;;;;;;;;;4976061;28;20480;-70
2021/09/07 11:01:29;;;;;;;9.10;5.07;;;;;;;;;;4974742;28;20115;-73
2021/09/07 11:04:14;;;;;;;6.28;5.00;;;;;;;;;;4970771;28;20546;-74
2021/09/07 11:06:41;;;;;;;10.43;4.85;;;;;;;;;;4973766;28;20050;-73
2021/09/07 11:09:26;;;;;;;13.82;5.63;;;;;;;;;;4975835;28;20034;-72
2021/09/07 11:12:12;;;;;;;10.23;4.63;;;;;;;;;;4972146;28;20097;-76
2021/09/07 11:14:59;;;;;;;11.73;5.40;;;;;;;;;;4974600;28;20536;-74
2021/09/07 11:17:25;;;;;;;10.57;4.90;;;;;;;;;;4974316;28;20054;-75
2021/09/07 11:19:58;;;;;;;9.95;4.80;;;;;;;;;;4968445;28;20031;-70
2021/09/07 11:22:30;;;;;;;10.27;5.38;;;;;;;;;;4967742;28;20481;-81
2021/09/07 11:25:04;;;;;;;9.70;5.15;;;;;;;;;;4952201;28;20057;-73
2021/09/07 11:27:49;;;;;;;10.40;4.90;;;;;;;;;;4973976;28;20027;-69
2021/09/07 11:30:21;;;;;;;16.15;5.55;;;;;;;;;;4971968;28;20049;-71
2021/09/07 11:32:51;;;;;;;11.50;5.10;;;;;;;;;;4974840;28;20034;-71
2021/09/07 11:35:19;;;;;;;8.18;5.13;;;;;;;;;;4973642;28;20065;-69
2021/09/07 11:37:58;;;;;;;10.00;5.13;;;;;;;;;;4972341;28;20035;-74
2021/09/07 11:40:24;;;;;;;8.82;5.07;;;;;;;;;;4971242;28;20045;-70
2021/09/07 11:43:02;;;;;;;7.55;5.05;;;;;;;;;;4966371;28;20030;-70
2021/09/07 11:45:40;;;;;;;16.27;6.22;;;;;;;;;;4958087;28;20074;-70
2021/09/07 11:48:34;;;;;;;16.65;5.78;;;;;;;;;;4971108;28;20058;-72
2021/09/07 11:51:00;;;;;;;8.38;5.07;;;;;;;;;;4947979;28;20043;-75
2021/09/07 11:53:29;;;;;;;7.03;5.00;;;;;;;;;;4970657;28;20015;-76
2021/09/07 11:55:56;;;;;;;14.90;5.40;;;;;;;;;;4980599;28;20058;-75
2021/09/07 11:58:39;;;;;;;6.60;5.10;;;;;;;;;;4973278;28;20618;-73
2021/09/07 12:01:08;;;;;;;7.33;5.30;;;;;;;;;;4969317;28;20039;-73
2021/09/07 12:03:47;;;;;;;15.05;5.15;;;;;;;;;;4972648;28;20122;-69
2021/09/07 12:06:14;;;;;;;7.32;4.90;;;;;;;;;;4970632;28;20532;-74
2021/09/07 12:08:45;;;;;;;8.55;4.65;;;;;;;;;;4971059;28;20031;-76
2021/09/07 12:11:31;;;;;;;12.25;4.90;;;;;;;;;;4972589;28;20042;-74
2021/09/07 12:14:04;;;;;;;9.48;4.90;;;;;;;;;;4973788;28;20026;-78
2021/09/07 12:16:30;;;;;;;;;;;;;;;;;;4975462;28;20397;-74
2021/09/07 12:18:56;;;;;;;9.15;4.65;;;;;;;;;;4973934;28;19936;-70
2021/09/07 12:21:23;;;;;;;19.10;5.10;;;;;;;;;;4974913;28;20055;-73
2021/09/07 12:23:50;;;;;;;7.00;4.60;;;;;;;;;;4974743;28;20120;-74
2021/09/07 12:26:17;;;;;;;10.02;4.68;;;;;;;;;;4974850;28;20117;-70
2021/09/07 12:28:43;;;;;;;10.05;4.72;;;;;;;;;;4974142;28;20085;-67
2021/09/07 12:31:14;;;;;;;11.18;5.70;;;;;;;;;;4974500;28;20038;-75
2021/09/07 12:33:41;;;;;;;7.68;5.35;;;;;;;;;;4974321;28;20045;-75
2021/09/07 12:36:07;;;;;;;10.27;5.03;;;;;;;;;;4974216;28;20053;-72
2021/09/07 12:38:34;;;;;;;11.80;5.22;;;;;;;;;;4974610;28;20026;-72
2021/09/07 12:41:06;;;;;;;10.88;5.05;;;;;;;;;;4973705;28;20035;-67
2021/09/07 12:43:33;;;;;;;15.10;4.97;;;;;;;;;;4974329;28;20035;-74
2021/09/07 12:46:00;;;;;;;8.55;5.03;;;;;;;;;;4975327;28;20080;-73
2021/09/07 12:48:27;;;;;;;7.03;4.85;;;;;;;;;;4968534;28;20034;-73
2021/09/07 12:50:53;;;;;;;10.75;5.10;;;;;;;;;;4973750;28;20042;-73
2021/09/07 12:53:25;;;;;;;10.23;4.68;;;;;;;;;;4969980;28;20027;-77
2021/09/07 12:55:52;;;;;;;7.72;4.80;;;;;;;;;;4965918;28;20022;-70
2021/09/07 12:58:18;;;;;;;7.57;4.57;;;;;;;;;;4973805;28;20019;-72
2021/09/07 13:00:45;;;;;;;13.40;5.55;;;;;;;;;;4971017;28;20078;-74
2021/09/07 13:03:12;;;;;;;6.32;4.50;;;;;;;;;;4967724;28;20074;-75
2021/09/07 13:05:43;;;;;;;8.30;4.80;;;;;;;;;;4956191;28;20054;-74
2021/09/07 13:08:10;;;;;;;7.75;4.88;;;;;;;;;;4972846;28;20029;-78
2021/09/07 13:10:36;;;;;;;8.32;4.45;;;;;;;;;;4972940;28;20058;-77
2021/09/07 13:13:02;;;;;;;7.13;4.72;;;;;;;;;;4971076;28;20027;-78
2021/09/07 13:15:28;;;;;;;11.13;4.90;;;;;;;;;;4953646;28;20039;-77
2021/09/07 13:17:54;;;;;;;7.30;4.57;;;;;;;;;;4973480;28;20025;-77
2021/09/07 13:20:20;;;;;;;7.78;4.97;;;;;;;;;;4973836;28;20093;-78
2021/09/07 13:22:47;;;;;;;13.00;4.88;;;;;;;;;;4968687;28;20093;-72
2021/09/07 13:25:16;;;;;;;8.18;4.60;;;;;;;;;;4971894;28;20037;-74
2021/09/07 13:27:42;;;;;;;7.10;4.70;;;;;;;;;;4971869;28;20480;-74
2021/09/07 13:30:08;;;;;;;10.65;4.75;;;;;;;;;;4969648;28;20031;-75
2021/09/07 13:32:34;;;;;;;9.73;5.28;;;;;;;;;;4972597;28;20034;-73
2021/09/07 13:35:00;;;;;;;10.55;4.90;;;;;;;;;;4971644;28;20129;-74
2021/09/07 13:37:26;;;;;;;11.98;5.15;;;;;;;;;;4972709;28;20027;-73
2021/09/07 13:39:55;;;;;;;13.75;4.63;;;;;;;;;;4973319;28;20491;-75
2021/09/07 13:42:22;;;;;;;7.63;4.80;;;;;;;;;;4973081;28;20139;-73
2021/09/07 13:44:51;;;;;;;9.10;5.00;;;;;;;;;;4948408;28;20054;-72
2021/09/07 13:47:17;;;;;;;10.80;5.03;;;;;;;;;;4968648;28;20018;-71
2021/09/07 13:49:46;;;;;;;10.40;4.57;;;;;;;;;;4953342;28;20037;-72
2021/09/07 13:52:12;;;;;;;26.05;5.60;;;;;;;;;;4966619;28;20485;-70
2021/09/07 13:54:38;;;;;;;8.57;5.00;;;;;;;;;;4967901;28;20110;-70
2021/09/07 13:57:04;;;;;;;10.07;5.38;;;;;;;;;;4972535;28;20041;-71
2021/09/07 13:59:30;;;;;;;13.88;5.50;;;;;;;;;;4971169;28;20085;-73
2021/09/07 14:02:21;;;;;;;12.07;4.45;;;;;;;;;;4965070;28;20026;-72
2021/09/07 14:04:47;;;;;;;11.25;4.88;;;;;;;;;;4960861;28;20023;-71
2021/09/07 14:07:14;;;;;;;19.60;6.00;;;;;;;;;;4964188;28;20062;-73
2021/09/07 14:09:40;;;;;;;11.52;5.03;;;;;;;;;;4973215;28;20022;-72
2021/09/07 14:12:26;;;;;;;9.82;4.90;;;;;;;;;;4975434;28;20475;-71
2021/09/07 14:15:21;;;;;;;8.73;5.53;;;;;;;;;;4978122;28;20051;-72
2021/09/07 14:17:49;;;;;;;10.13;5.00;;;;;;;;;;4969785;28;20037;-71
2021/09/07 14:21:01;;;;;;;;;;;;;;;;;;;;;
2021/09/07 14:23:27;;;;;;;9.18;4.72;;;;;;;;;;4973926;28;20092;-72
2021/09/07 14:25:54;;;;;;;27.17;6.00;;;;;;;;;;4990816;28;20480;-70
2021/09/07 14:28:21;;;;;;;10.80;4.60;;;;;;;;;;4973482;28;20477;-74
2021/09/07 14:33:49;;;;;;;13.93;5.43;;;;;;;;;;4947303;29;20051;-71
2021/09/07 14:36:16;;;;;;;14.52;4.95;;;;;;;;;;4975418;28;20121;-71
2021/09/07 14:38:42;;;;;;;8.90;4.82;;;;;;;;;;4975308;28;20030;-71
2021/09/07 14:41:08;;;;;;;12.02;5.30;;;;;;;;;;4976610;28;20503;-71
2021/09/07 14:43:39;;;;;;;17.75;5.38;;;;;;;;;;4969085;28;20437;-72
2021/09/07 14:46:05;;;;;;;12.30;5.13;;;;;;;;;;4985468;28;20092;-70
2021/09/07 14:49:14;;;;;;;;;;;;;;;;;;;;;
2021/09/07 14:51:40;;;;;;;11.25;5.07;;;;;;;;;;4897366;29;20041;-73
2021/09/07 14:54:41;;;;;;;13.65;5.10;;;;;;;;;;4898226;29;20139;-71
2021/09/07 14:57:07;;;;;;;11.38;5.55;;;;;;;;;;4842464;29;20034;-73
2021/09/07 14:59:33;;;;;;;28.75;6.22;;;;;;;;;;4832828;29;20053;-73
2021/09/07 15:02:00;;;;;;;23.58;5.57;;;;;;;;;;4841808;29;20037;-72
2021/09/07 15:04:26;;;;;;;10.32;4.85;;;;;;;;;;4842051;29;20129;-71
2021/09/07 15:06:59;;;;;;;8.10;5.25;;;;;;;;;;4852928;29;20026;-72